createdAt,value
2022-10-28T00:02:37.187Z,102436.06
2022-10-28T00:05:43.010Z,102440.34
2022-10-28T00:08:49.591Z,102446.16
2022-10-28T00:11:54.838Z,102449.28
2022-10-28T00:15:00.015Z,102454.81
2022-10-28T00:18:05.238Z,102453.00
2022-10-28T00:21:14.738Z,102453.91
2022-10-28T00:24:20.278Z,102455.66
2022-10-28T00:27:25.824Z,102441.88
2022-10-28T00:33:42.355Z,102437.28
2022-10-28T00:36:48.693Z,102438.75
2022-10-28T00:39:54.288Z,102446.81
2022-10-28T00:42:59.632Z,102444.78
2022-10-28T00:46:14.407Z,102437.19
2022-10-28T00:49:25.143Z,102439.06
2022-10-28T00:52:32.914Z,102435.81
2022-10-28T00:55:38.651Z,102429.75
2022-10-28T00:58:46.171Z,102426.00
2022-10-28T01:01:51.985Z,102424.91
2022-10-28T01:04:57.642Z,102413.81
2022-10-28T01:08:04.722Z,102415.06
2022-10-28T01:11:27.910Z,102424.97
2022-10-28T01:14:39.611Z,102414.69
2022-10-28T01:17:51.295Z,102414.34
2022-10-28T01:21:45.887Z,102402.97
2022-10-28T01:24:57.215Z,102404.84
2022-10-28T01:28:33.479Z,102395.78
2022-10-28T01:31:59.383Z,102393.13
2022-10-28T01:35:12.479Z,102394.69
2022-10-28T01:38:18.221Z,102390.78
2022-10-28T01:41:36.167Z,102378.38
2022-10-28T01:44:59.682Z,102384.34
2022-10-28T01:48:20.497Z,102378.34
2022-10-28T01:51:42.215Z,102386.78
2022-10-28T01:54:52.758Z,102386.56
2022-10-28T01:58:01.775Z,102399.78
2022-10-28T02:01:09.794Z,102403.34
2022-10-28T02:04:15.559Z,102404.41
2022-10-28T02:07:21.256Z,102401.94
2022-10-28T02:10:37.343Z,102399.25
2022-10-28T02:14:06.954Z,102400.38
2022-10-28T02:17:57.683Z,102397.47
2022-10-28T02:21:13.822Z,102400.53
2022-10-28T02:24:38.669Z,102408.81
2022-10-28T02:27:58.561Z,102413.19
2022-10-28T02:31:19.307Z,102408.06
2022-10-28T02:34:30.732Z,102411.56
2022-10-28T02:37:39.469Z,102398.78
2022-10-28T02:44:03.254Z,102409.09
2022-10-28T02:47:16.620Z,102415.84
2022-10-28T02:50:31.082Z,102419.69
2022-10-28T02:53:48.259Z,102413.19
2022-10-28T02:56:59.689Z,102404.75
2022-10-28T03:00:18.710Z,102407.03
2022-10-28T03:03:24.200Z,102403.78
2022-10-28T03:06:29.656Z,102398.84
2022-10-28T03:09:35.277Z,102394.53
2022-10-28T03:12:40.672Z,102394.28
2022-10-28T03:15:47.921Z,102398.19
2022-10-28T03:18:54.516Z,102403.34
2022-10-28T03:21:59.961Z,102395.94
2022-10-28T03:25:06.916Z,102400.25
2022-10-28T03:28:12.698Z,102399.47
2022-10-28T03:31:18.435Z,102399.03
2022-10-28T03:34:23.868Z,102398.38
2022-10-28T03:37:29.713Z,102401.47
2022-10-28T03:40:35.577Z,102402.34
2022-10-28T03:43:41.837Z,102397.19
2022-10-28T03:46:47.395Z,102398.00
2022-10-28T03:49:52.770Z,102396.78
2022-10-28T03:52:58.183Z,102385.47
2022-10-28T03:56:03.965Z,102386.50
2022-10-28T03:59:10.396Z,102390.81
2022-10-28T04:02:16.199Z,102391.00
2022-10-28T04:05:22.437Z,102391.00
2022-10-28T04:08:28.440Z,102392.22
2022-10-28T04:11:34.177Z,102385.66
2022-10-28T04:14:39.715Z,102386.44
2022-10-28T04:17:45.530Z,102388.75
2022-10-28T04:20:52.712Z,102388.75
2022-10-28T04:23:57.990Z,102394.47
2022-10-28T04:27:03.146Z,102394.72
2022-10-28T04:30:09.809Z,102394.09
2022-10-28T04:33:14.980Z,102404.81
2022-10-28T04:36:20.037Z,102403.16
2022-10-28T04:39:25.558Z,102400.84
2022-10-28T04:42:31.386Z,102401.66
2022-10-28T04:45:36.962Z,102403.94
2022-10-28T04:48:42.366Z,102394.06
2022-10-28T04:54:58.144Z,102386.06
2022-10-28T04:58:04.031Z,102382.75
2022-10-28T05:01:11.001Z,102382.78
2022-10-28T05:04:17.286Z,102386.63
2022-10-28T05:07:23.655Z,102391.81
2022-10-28T05:10:29.343Z,102381.47
2022-10-28T05:13:34.965Z,102384.16
2022-10-28T05:16:40.881Z,102381.28
2022-10-28T05:19:46.787Z,102387.06
2022-10-28T05:22:55.291Z,102378.22
2022-10-28T05:26:01.419Z,102383.34
2022-10-28T05:29:07.130Z,102384.16
2022-10-28T05:32:12.733Z,102385.81
2022-10-28T05:35:18.071Z,102385.81
2022-10-28T05:38:23.754Z,102385.63
2022-10-28T05:41:29.401Z,102390.13
2022-10-28T05:44:34.944Z,102393.38
2022-10-28T05:47:45.249Z,102395.88
2022-10-28T05:50:50.612Z,102392.38
2022-10-28T05:53:55.913Z,102396.06
2022-10-28T05:57:01.887Z,102384.56
2022-10-28T06:00:08.484Z,102388.28
2022-10-28T06:03:24.968Z,102388.91
2022-10-28T06:06:34.288Z,102381.28
2022-10-28T06:09:40.277Z,102390.13
2022-10-28T06:12:43.860Z,102397.97
2022-10-28T06:15:56.459Z,102394.88
2022-10-28T06:19:02.261Z,102399.81
2022-10-28T06:22:07.776Z,102410.13
2022-10-28T06:25:13.440Z,102407.66
2022-10-28T06:28:19.423Z,102407.44
2022-10-28T06:31:25.527Z,102406.25
2022-10-28T06:34:31.114Z,102417.16
2022-10-28T06:37:36.775Z,102422.72
2022-10-28T06:40:42.741Z,102410.97
2022-10-28T06:43:48.134Z,102417.78
2022-10-28T06:46:55.985Z,102420.03
2022-10-28T06:50:01.451Z,102420.25
2022-10-28T06:53:06.871Z,102431.16
2022-10-28T06:56:12.203Z,102433.19
2022-10-28T06:59:17.890Z,102430.53
2022-10-28T07:02:23.574Z,102432.19
2022-10-28T07:05:29.755Z,102438.16
2022-10-28T07:08:35.427Z,102437.50
2022-10-28T07:11:43.840Z,102447.44
2022-10-28T07:14:49.310Z,102455.84
2022-10-28T07:17:59.531Z,102454.78
2022-10-28T07:21:05.392Z,102453.34
2022-10-28T07:24:10.921Z,102461.16
2022-10-28T07:27:16.438Z,102458.00
2022-10-28T07:30:21.973Z,102455.06
2022-10-28T07:33:27.933Z,102457.13
2022-10-28T07:36:33.430Z,102458.75
2022-10-28T07:39:39.471Z,102454.97
2022-10-28T07:42:45.154Z,102450.38
2022-10-28T07:46:00.674Z,102450.97
2022-10-28T07:49:06.067Z,102464.09
2022-10-28T07:52:11.680Z,102468.31
2022-10-28T07:55:17.126Z,102467.34
2022-10-28T07:58:22.904Z,102462.53
2022-10-28T08:01:28.392Z,102464.31
2022-10-28T08:04:34.524Z,102460.72
2022-10-28T08:07:40.061Z,102465.53
2022-10-28T08:10:45.603Z,102474.00
2022-10-28T08:13:52.541Z,102473.13
2022-10-28T08:16:57.903Z,102469.00
2022-10-28T08:20:03.438Z,102480.00
2022-10-28T08:23:09.181Z,102470.50
2022-10-28T08:26:16.701Z,102473.88
2022-10-28T08:29:24.196Z,102475.50
2022-10-28T08:32:33.279Z,102469.66
2022-10-28T08:35:39.050Z,102482.38
2022-10-28T08:38:47.024Z,102478.00
2022-10-28T08:41:58.262Z,102474.97
2022-10-28T08:45:22.119Z,102471.16
2022-10-28T08:48:33.349Z,102460.78
2022-10-28T08:51:45.420Z,102466.75
2022-10-28T08:54:58.253Z,102469.47
2022-10-28T08:58:13.181Z,102466.19
2022-10-28T09:01:35.885Z,102461.63
2022-10-28T09:04:44.926Z,102465.50
2022-10-28T09:07:51.121Z,102456.47
2022-10-28T09:11:06.565Z,102463.03
2022-10-28T09:14:57.000Z,102465.13
2022-10-28T09:18:19.762Z,102464.31
2022-10-28T09:21:35.779Z,102463.56
2022-10-28T09:24:53.128Z,102461.09
2022-10-28T09:28:28.132Z,102465.97
2022-10-28T09:32:04.164Z,102472.19
2022-10-28T09:35:17.624Z,102472.53
2022-10-28T09:38:42.443Z,102475.00
2022-10-28T09:41:50.647Z,102473.13
2022-10-28T09:45:04.863Z,102468.75
2022-10-28T09:48:34.985Z,102465.41
2022-10-28T09:51:55.953Z,102462.91
2022-10-28T09:55:08.301Z,102465.69
2022-10-28T09:58:14.225Z,102471.25
2022-10-28T10:01:21.063Z,102472.13
2022-10-28T10:04:31.633Z,102467.56
2022-10-28T10:07:47.656Z,102469.25
2022-10-28T10:10:57.906Z,102460.88
2022-10-28T10:14:10.581Z,102464.81
2022-10-28T10:17:20.989Z,102453.81
2022-10-28T10:20:27.565Z,102457.75
2022-10-28T10:23:35.715Z,102455.31
2022-10-28T10:26:41.038Z,102452.06
2022-10-28T10:29:52.510Z,102449.94
2022-10-28T10:32:59.003Z,102444.72
2022-10-28T10:36:14.933Z,102439.78
2022-10-28T10:39:28.270Z,102443.72
2022-10-28T10:42:39.188Z,102444.75
2022-10-28T10:46:13.285Z,102435.88
2022-10-28T10:49:19.211Z,102440.97
2022-10-28T10:52:26.506Z,102435.16
2022-10-28T10:55:41.598Z,102429.97
2022-10-28T10:58:52.209Z,102430.28
2022-10-28T11:02:00.402Z,102419.16
2022-10-28T11:05:09.961Z,102415.97
2022-10-28T11:08:35.521Z,102416.91
2022-10-28T11:11:41.479Z,102406.06
2022-10-28T11:15:01.237Z,102408.13
2022-10-28T11:18:09.643Z,102408.44
2022-10-28T11:21:33.183Z,102406.56
2022-10-28T11:25:09.005Z,102403.63
2022-10-28T11:29:01.108Z,102395.63
2022-10-28T11:32:28.852Z,102389.97
2022-10-28T11:35:38.144Z,102379.03
2022-10-28T11:38:49.488Z,102376.75
2022-10-28T11:42:13.552Z,102368.06
2022-10-28T11:45:28.773Z,102366.72
2022-10-28T11:49:09.093Z,102366.50
2022-10-28T11:52:42.745Z,102364.31
2022-10-28T11:56:29.507Z,102366.22
2022-10-28T11:59:56.841Z,102352.94
2022-10-28T12:03:16.080Z,102357.28
2022-10-28T12:06:21.320Z,102351.31
2022-10-28T12:09:57.575Z,102339.91
2022-10-28T12:13:13.651Z,102338.00
2022-10-28T12:16:26.281Z,102333.13
2022-10-28T12:19:43.447Z,102332.00
2022-10-28T12:23:00.542Z,102339.31
2022-10-28T12:26:13.282Z,102331.66
2022-10-28T12:29:27.719Z,102323.47
2022-10-28T12:32:37.620Z,102323.50
2022-10-28T12:36:18.445Z,102314.50
2022-10-28T12:39:38.942Z,102312.56
2022-10-28T12:42:56.595Z,102307.09
2022-10-28T12:46:03.813Z,102305.75
2022-10-28T12:49:22.410Z,102302.41
2022-10-28T12:52:51.835Z,102294.22
2022-10-28T12:56:00.877Z,102293.34
2022-10-28T12:59:16.107Z,102288.19
2022-10-28T13:02:28.767Z,102283.19
2022-10-28T13:05:51.073Z,102283.97
2022-10-28T13:09:37.821Z,102292.63
2022-10-28T13:13:13.539Z,102294.59
2022-10-28T13:16:49.361Z,102296.06
2022-10-28T13:20:03.560Z,102288.97
2022-10-28T13:23:09.245Z,102279.50
2022-10-28T13:26:41.846Z,102282.53
2022-10-28T13:29:53.029Z,102280.63
2022-10-28T13:33:10.143Z,102284.94
2022-10-28T13:36:26.725Z,102280.06
2022-10-28T13:39:32.875Z,102281.16
2022-10-28T13:42:50.054Z,102278.19
2022-10-28T13:45:56.937Z,102279.56
2022-10-28T13:49:41.624Z,102279.56
2022-10-28T13:52:48.542Z,102279.31
2022-10-28T13:55:58.423Z,102278.22
2022-10-28T13:59:12.999Z,102277.13
2022-10-28T14:02:34.984Z,102269.00
2022-10-28T14:05:44.568Z,102274.44
2022-10-28T14:08:49.992Z,102269.81
2022-10-28T14:12:09.271Z,102276.63
2022-10-28T14:15:14.786Z,102268.72
2022-10-28T14:22:03.239Z,102266.28
2022-10-28T14:25:39.966Z,102283.91
2022-10-28T14:28:51.398Z,102279.88
2022-10-28T14:31:57.042Z,102281.75
2022-10-28T14:35:14.242Z,102282.28
2022-10-28T14:38:51.247Z,102279.03
2022-10-28T14:42:33.301Z,102277.94
2022-10-28T14:46:01.779Z,102271.16
2022-10-28T14:49:20.629Z,102278.78
2022-10-28T14:52:28.862Z,102276.34
2022-10-28T14:55:35.375Z,102273.09
2022-10-28T14:58:44.226Z,102273.63
2022-10-28T15:02:37.279Z,102278.50
2022-10-28T15:05:43.426Z,102276.34
2022-10-28T15:08:48.775Z,102269.56
2022-10-28T15:12:03.021Z,102274.72
2022-10-28T15:15:26.225Z,102273.38
2022-10-28T15:18:31.885Z,102272.25
2022-10-28T15:21:37.592Z,102280.16
2022-10-28T15:24:57.298Z,102276.09
2022-10-28T15:28:03.397Z,102271.19
2022-10-28T15:31:09.924Z,102271.69
2022-10-28T15:34:23.597Z,102278.44
2022-10-28T15:37:31.177Z,102275.44
2022-10-28T15:40:38.649Z,102268.38
2022-10-28T15:43:55.288Z,102265.91
2022-10-28T15:47:16.861Z,102268.31
2022-10-28T15:50:42.071Z,102269.91
2022-10-28T15:53:54.608Z,102262.53
2022-10-28T15:57:00.509Z,102266.81
2022-10-28T16:00:20.541Z,102264.31
2022-10-28T16:06:39.160Z,102270.16
2022-10-28T16:09:51.014Z,102268.75
2022-10-28T16:12:56.154Z,102278.13
2022-10-28T16:16:27.391Z,102278.34
2022-10-28T16:19:38.525Z,102275.84
2022-10-28T16:22:45.014Z,102274.16
2022-10-28T16:25:50.772Z,102279.22
2022-10-28T16:28:56.983Z,102279.69
2022-10-28T16:32:02.394Z,102281.22
2022-10-28T16:35:26.926Z,102296.56
2022-10-28T16:38:33.691Z,102297.88
2022-10-28T16:41:41.391Z,102292.94
2022-10-28T16:44:48.003Z,102300.47
2022-10-28T16:47:53.463Z,102295.16
2022-10-28T16:51:06.046Z,102296.22
2022-10-28T16:54:11.510Z,102292.66
2022-10-28T16:57:18.153Z,102299.63
2022-10-28T17:00:23.390Z,102288.50
2022-10-28T17:03:29.110Z,102285.44
2022-10-28T17:06:34.656Z,102291.84
2022-10-28T17:09:40.149Z,102301.22
2022-10-28T17:12:45.734Z,102300.09
2022-10-28T17:15:54.487Z,102303.94
2022-10-28T17:19:00.693Z,102306.03
2022-10-28T17:22:09.303Z,102306.03
2022-10-28T17:25:19.071Z,102302.09
2022-10-28T17:28:25.980Z,102295.13
2022-10-28T17:31:31.845Z,102300.78
2022-10-28T17:34:38.059Z,102302.94
2022-10-28T17:37:43.296Z,102305.88
2022-10-28T17:40:58.536Z,102307.16
2022-10-28T17:44:05.141Z,102301.69
2022-10-28T17:47:12.713Z,102298.66
2022-10-28T17:50:18.300Z,102298.25
2022-10-28T17:53:23.914Z,102306.19
2022-10-28T17:56:29.599Z,102311.59
2022-10-28T17:59:37.128Z,102311.75
2022-10-28T18:02:43.498Z,102313.63
2022-10-28T18:05:49.113Z,102315.19
2022-10-28T18:08:54.295Z,102312.75
2022-10-28T18:12:02.356Z,102326.59
2022-10-28T18:15:10.009Z,102329.88
2022-10-28T18:18:16.576Z,102322.34
2022-10-28T18:21:24.803Z,102317.91
2022-10-28T18:24:30.174Z,102323.78
2022-10-28T18:27:36.339Z,102327.66
2022-10-28T18:30:41.634Z,102330.50
2022-10-28T18:33:47.758Z,102334.59
2022-10-28T18:36:53.147Z,102344.47
2022-10-28T18:39:58.483Z,102345.06
2022-10-28T18:43:03.795Z,102346.13
2022-10-28T18:46:10.029Z,102340.22
2022-10-28T18:49:15.092Z,102348.31
2022-10-28T18:52:20.285Z,102347.59
2022-10-28T18:55:26.077Z,102351.25
2022-10-28T18:58:31.353Z,102348.00
2022-10-28T19:01:37.970Z,102351.72
2022-10-28T19:04:43.782Z,102348.94
2022-10-28T19:07:49.159Z,102345.06
2022-10-28T19:10:58.810Z,102344.47
2022-10-28T19:14:06.919Z,102345.06
2022-10-28T19:17:12.821Z,102349.03
2022-10-28T19:20:22.828Z,102356.06
2022-10-28T19:23:29.382Z,102350.28
2022-10-28T19:26:35.132Z,102347.94
2022-10-28T19:29:40.942Z,102349.59
2022-10-28T19:32:46.290Z,102345.03
2022-10-28T19:35:51.977Z,102348.53
2022-10-28T19:38:58.277Z,102345.13
2022-10-28T19:42:03.282Z,102349.31
2022-10-28T19:45:09.421Z,102347.56
2022-10-28T19:48:14.664Z,102352.56
2022-10-28T19:51:22.206Z,102350.13
2022-10-28T19:54:27.728Z,102342.28
2022-10-28T19:57:33.057Z,102344.97
2022-10-28T20:00:38.068Z,102345.22
2022-10-28T20:03:48.944Z,102356.78
2022-10-28T20:06:58.049Z,102358.41
2022-10-28T20:10:03.610Z,102363.59
2022-10-28T20:13:10.526Z,102362.66
2022-10-28T20:16:18.127Z,102360.06
2022-10-28T20:19:23.627Z,102363.22
2022-10-28T20:22:29.183Z,102357.84
2022-10-28T20:25:34.659Z,102355.81
2022-10-28T20:28:40.302Z,102364.03
2022-10-28T20:31:45.912Z,102368.69
2022-10-28T20:34:51.332Z,102365.16
2022-10-28T20:37:57.955Z,102370.06
2022-10-28T20:41:07.603Z,102363.50
2022-10-28T20:44:16.093Z,102373.00
2022-10-28T20:47:21.600Z,102367.72
2022-10-28T20:50:27.177Z,102366.00
2022-10-28T20:53:35.365Z,102365.41
2022-10-28T20:56:42.330Z,102368.47
2022-10-28T20:59:52.065Z,102366.19
2022-10-28T21:03:42.553Z,102372.47
2022-10-28T21:06:48.302Z,102378.03
2022-10-28T21:09:53.638Z,102375.03
2022-10-28T21:13:44.363Z,102368.56
2022-10-28T21:16:53.068Z,102363.03
2022-10-28T21:19:58.447Z,102370.22
2022-10-28T21:23:05.305Z,102373.44
2022-10-28T21:26:12.916Z,102378.69
2022-10-28T21:29:18.250Z,102379.78
2022-10-28T21:32:24.239Z,102383.63
2022-10-28T21:35:30.054Z,102383.13
2022-10-28T21:38:36.131Z,102379.75
2022-10-28T21:41:41.555Z,102374.59
2022-10-28T21:44:47.261Z,102376.91
2022-10-28T21:47:57.335Z,102374.22
2022-10-28T21:51:08.631Z,102371.59
2022-10-28T21:54:18.713Z,102369.97
2022-10-28T21:57:30.003Z,102367.72
2022-10-28T22:00:35.747Z,102366.06
2022-10-28T22:03:41.647Z,102360.47
2022-10-28T22:09:57.502Z,102353.09
2022-10-28T22:13:02.519Z,102358.25
2022-10-28T22:16:13.332Z,102359.44
2022-10-28T22:19:18.817Z,102355.94
2022-10-28T22:22:26.312Z,102362.00
2022-10-28T22:25:31.928Z,102355.19
2022-10-28T22:28:37.783Z,102366.97
2022-10-28T22:31:43.479Z,102356.88
2022-10-28T22:34:48.880Z,102359.25
2022-10-28T22:37:54.503Z,102351.41
2022-10-28T22:41:16.909Z,102360.56
2022-10-28T22:44:22.542Z,102368.69
2022-10-28T22:47:27.994Z,102371.06
2022-10-28T22:50:33.218Z,102365.13
2022-10-28T22:53:40.011Z,102360.03
2022-10-28T22:56:46.022Z,102366.25
2022-10-28T22:59:51.406Z,102367.25
2022-10-28T23:02:58.043Z,102367.03
2022-10-28T23:06:04.397Z,102364.50
2022-10-28T23:09:09.428Z,102361.59
2022-10-28T23:12:14.571Z,102360.56
2022-10-28T23:15:19.999Z,102350.28
2022-10-28T23:18:28.533Z,102353.81
2022-10-28T23:21:33.970Z,102350.28
2022-10-28T23:24:40.211Z,102347.19
2022-10-28T23:27:46.095Z,102338.91
2022-10-28T23:30:51.802Z,102333.19
2022-10-28T23:33:58.608Z,102339.28
2022-10-28T23:37:03.991Z,102335.53
2022-10-28T23:43:20.808Z,102339.63
2022-10-28T23:46:26.307Z,102324.59
2022-10-28T23:49:31.559Z,102323.44
2022-10-28T23:52:38.152Z,102323.59
2022-10-28T23:55:45.050Z,102321.66
2022-10-28T23:58:50.214Z,102319.09
